createdAt,value
2023-03-28T00:02:34.846Z,0.80
2023-03-28T00:05:21.668Z,0.63
2023-03-28T00:08:08.000Z,0.70
2023-03-28T00:10:53.354Z,0.77
2023-03-28T00:13:38.841Z,0.60
2023-03-28T00:16:25.847Z,0.70
2023-03-28T00:19:16.697Z,0.70
2023-03-28T00:22:02.009Z,1.05
2023-03-28T00:24:48.967Z,0.75
2023-03-28T00:27:36.007Z,0.80
2023-03-28T00:30:21.476Z,0.90
2023-03-28T00:33:07.518Z,0.93
2023-03-28T00:35:53.078Z,0.80
2023-03-28T00:38:39.043Z,1.00
2023-03-28T00:41:27.001Z,1.00
2023-03-28T00:44:44.142Z,0.80
2023-03-28T00:47:37.451Z,1.30
2023-03-28T00:50:29.361Z,1.83
2023-03-28T00:53:23.978Z,2.10
2023-03-28T00:56:12.021Z,1.98
2023-03-28T00:58:59.209Z,2.08
2023-03-28T01:01:46.105Z,1.90
2023-03-28T01:04:41.957Z,2.08
2023-03-28T01:07:35.111Z,2.00
2023-03-28T01:10:21.850Z,1.90
2023-03-28T01:13:08.115Z,1.55
2023-03-28T01:15:53.873Z,1.50
2023-03-28T01:18:41.566Z,1.48
2023-03-28T01:22:02.343Z,1.70
2023-03-28T01:24:48.825Z,1.30
2023-03-28T01:28:02.289Z,1.35
2023-03-28T01:31:24.130Z,1.05
2023-03-28T01:35:19.244Z,1.10
2023-03-28T01:38:17.663Z,1.00
2023-03-28T01:41:12.083Z,1.10
2023-03-28T01:44:28.597Z,1.00
2023-03-28T01:47:51.465Z,1.10
2023-03-28T01:50:58.578Z,0.90
2023-03-28T01:53:52.745Z,0.90
2023-03-28T01:57:02.277Z,0.93
2023-03-28T02:00:13.282Z,0.90
2023-03-28T02:03:31.993Z,0.90
2023-03-28T02:06:24.177Z,0.90
2023-03-28T02:09:11.232Z,1.00
2023-03-28T02:12:30.827Z,0.93
2023-03-28T02:15:27.165Z,0.80
2023-03-28T02:18:43.487Z,0.90
2023-03-28T02:22:10.894Z,0.90
2023-03-28T02:25:20.228Z,0.82
2023-03-28T02:28:25.503Z,1.00
2023-03-28T02:31:28.032Z,1.00
2023-03-28T02:34:14.218Z,1.00
2023-03-28T02:37:17.855Z,0.70
2023-03-28T02:40:18.115Z,0.90
2023-03-28T02:43:18.029Z,0.88
2023-03-28T02:46:13.138Z,0.88
2023-03-28T02:49:23.041Z,1.10
2023-03-28T02:52:21.870Z,0.88
2023-03-28T02:55:46.230Z,1.08
2023-03-28T02:58:56.404Z,0.88
2023-03-28T03:01:42.950Z,1.10
2023-03-28T03:04:28.621Z,1.00
2023-03-28T03:07:14.118Z,0.85
2023-03-28T03:10:00.730Z,1.20
2023-03-28T03:12:46.264Z,1.00
2023-03-28T03:15:31.728Z,1.05
2023-03-28T03:18:17.154Z,0.90
2023-03-28T03:21:03.797Z,0.90
2023-03-28T03:23:49.798Z,1.05
2023-03-28T03:26:35.662Z,1.13
2023-03-28T03:29:23.214Z,0.75
2023-03-28T03:32:08.760Z,1.00
2023-03-28T03:35:02.308Z,1.05
2023-03-28T03:37:47.570Z,1.00
2023-03-28T03:40:32.980Z,1.00
2023-03-28T03:43:19.058Z,1.00
2023-03-28T03:46:04.855Z,0.90
2023-03-28T03:48:50.741Z,1.08
2023-03-28T03:51:36.791Z,0.90
2023-03-28T03:54:22.252Z,0.95
2023-03-28T03:57:08.522Z,0.90
2023-03-28T03:59:53.868Z,1.33
2023-03-28T04:02:40.862Z,1.05
2023-03-28T04:05:26.992Z,0.88
2023-03-28T04:08:21.279Z,0.90
2023-03-28T04:11:09.506Z,1.00
2023-03-28T04:13:59.592Z,0.90
2023-03-28T04:16:45.210Z,0.90
2023-03-28T04:19:31.037Z,1.00
2023-03-28T04:22:18.240Z,1.20
2023-03-28T04:25:09.444Z,1.02
2023-03-28T04:28:01.696Z,0.95
2023-03-28T04:30:53.267Z,1.00
2023-03-28T04:34:10.406Z,1.00
2023-03-28T04:37:06.202Z,1.10
2023-03-28T04:40:01.573Z,0.98
2023-03-28T04:43:04.165Z,1.10
2023-03-28T04:45:55.940Z,0.93
2023-03-28T04:48:41.660Z,1.00
2023-03-28T04:51:28.491Z,0.90
2023-03-28T04:54:14.014Z,1.10
2023-03-28T04:57:05.525Z,1.17
2023-03-28T04:59:58.913Z,1.00
2023-03-28T05:03:05.127Z,1.05
2023-03-28T05:06:01.934Z,1.10
2023-03-28T05:08:47.588Z,1.10
2023-03-28T05:11:33.948Z,1.00
2023-03-28T05:14:19.573Z,0.82
2023-03-28T05:17:08.560Z,1.13
2023-03-28T05:20:11.170Z,0.90
2023-03-28T05:23:07.202Z,0.90
2023-03-28T05:26:01.003Z,0.98
2023-03-28T05:28:51.211Z,1.00
2023-03-28T05:31:36.951Z,0.85
2023-03-28T05:34:36.832Z,0.93
2023-03-28T05:37:23.113Z,0.90
2023-03-28T05:40:15.342Z,0.70
2023-03-28T05:43:01.839Z,0.88
2023-03-28T05:45:48.132Z,0.73
2023-03-28T05:48:38.624Z,1.20
2023-03-28T05:51:24.269Z,0.88
2023-03-28T05:54:09.644Z,1.40
2023-03-28T05:56:55.970Z,1.10
2023-03-28T05:59:43.767Z,1.20
2023-03-28T06:02:33.388Z,1.30
2023-03-28T06:05:20.526Z,1.13
2023-03-28T06:08:06.523Z,1.20
2023-03-28T06:10:52.082Z,1.42
2023-03-28T06:13:46.170Z,1.25
2023-03-28T06:16:32.727Z,1.30
2023-03-28T06:19:19.030Z,1.50
2023-03-28T06:22:09.459Z,1.35
2023-03-28T06:24:56.021Z,1.42
2023-03-28T06:27:46.303Z,1.50
2023-03-28T06:30:31.743Z,1.50
2023-03-28T06:33:19.604Z,1.25
2023-03-28T06:36:05.615Z,1.80
2023-03-28T06:38:53.647Z,1.17
2023-03-28T06:41:41.165Z,1.50
2023-03-28T06:44:27.938Z,1.98
2023-03-28T06:47:26.680Z,1.60
2023-03-28T06:50:12.506Z,1.58
2023-03-28T06:53:09.316Z,1.40
2023-03-28T06:55:55.628Z,1.40
2023-03-28T06:58:41.882Z,1.30
2023-03-28T07:01:30.302Z,1.30
2023-03-28T07:04:22.281Z,1.25
2023-03-28T07:07:09.418Z,1.00
2023-03-28T07:09:54.877Z,1.20
2023-03-28T07:12:41.243Z,1.30
2023-03-28T07:15:27.230Z,1.25
2023-03-28T07:18:12.666Z,1.13
2023-03-28T07:21:03.954Z,1.20
2023-03-28T07:23:50.556Z,1.50
2023-03-28T07:26:40.179Z,1.40
2023-03-28T07:29:27.822Z,1.33
2023-03-28T07:32:13.616Z,1.30
2023-03-28T07:35:02.367Z,1.30
2023-03-28T07:37:48.206Z,1.40
2023-03-28T07:40:44.959Z,1.30
2023-03-28T07:43:30.941Z,1.55
2023-03-28T07:46:18.071Z,1.40
2023-03-28T07:49:04.174Z,1.10
2023-03-28T07:51:52.742Z,1.60
2023-03-28T07:54:38.430Z,1.67
2023-03-28T07:57:24.004Z,1.30
2023-03-28T08:00:17.604Z,1.58
2023-03-28T08:06:11.310Z,1.60
2023-03-28T08:09:11.016Z,1.52
2023-03-28T08:11:59.245Z,1.50
2023-03-28T08:14:45.237Z,1.30
2023-03-28T08:17:30.974Z,1.27
2023-03-28T08:20:16.711Z,1.45
2023-03-28T08:23:21.510Z,1.35
2023-03-28T08:26:28.599Z,1.17
2023-03-28T08:29:16.347Z,1.15
2023-03-28T08:32:03.242Z,1.75
2023-03-28T08:34:48.893Z,1.30
2023-03-28T08:37:37.197Z,1.10
2023-03-28T08:40:27.068Z,1.20
2023-03-28T08:43:27.071Z,1.30
2023-03-28T08:46:14.823Z,1.20
2023-03-28T08:49:12.015Z,1.58
2023-03-28T08:52:00.777Z,1.10
2023-03-28T08:54:59.498Z,1.40
2023-03-28T08:57:45.616Z,1.10
2023-03-28T09:00:37.001Z,1.77
2023-03-28T09:03:24.188Z,1.40
2023-03-28T09:06:42.802Z,1.20
2023-03-28T09:09:48.946Z,1.35
2023-03-28T09:12:50.901Z,1.27
2023-03-28T09:15:42.173Z,1.88
2023-03-28T09:18:44.152Z,1.50
2023-03-28T09:22:14.972Z,1.65
2023-03-28T09:25:30.576Z,1.40
2023-03-28T09:28:35.049Z,1.00
2023-03-28T09:31:27.710Z,1.70
2023-03-28T09:34:23.188Z,1.48
2023-03-28T09:37:35.371Z,1.30
2023-03-28T09:40:27.433Z,1.60
2023-03-28T09:43:41.497Z,1.13
2023-03-28T09:46:54.219Z,1.58
2023-03-28T09:50:05.579Z,1.35
2023-03-28T09:52:57.546Z,1.55
2023-03-28T09:55:49.105Z,1.30
2023-03-28T09:58:54.985Z,1.30
2023-03-28T10:01:54.627Z,1.63
2023-03-28T10:04:49.962Z,1.65
2023-03-28T10:07:44.077Z,2.13
2023-03-28T10:10:42.372Z,1.88
2023-03-28T10:13:40.574Z,1.95
2023-03-28T10:19:42.007Z,2.15
2023-03-28T10:25:53.647Z,2.08
2023-03-28T10:31:30.543Z,2.00
2023-03-28T10:34:30.499Z,1.80
2023-03-28T10:37:47.819Z,1.77
2023-03-28T10:40:33.333Z,2.33
2023-03-28T10:43:41.189Z,2.08
2023-03-28T10:46:37.899Z,2.25
2023-03-28T10:49:47.433Z,2.20
2023-03-28T10:53:22.333Z,2.00
2023-03-28T10:56:15.254Z,2.42
2023-03-28T10:59:18.899Z,2.25
2023-03-28T11:02:38.916Z,2.13
2023-03-28T11:05:54.908Z,2.15
2023-03-28T11:09:02.584Z,1.85
2023-03-28T11:12:43.803Z,1.83
2023-03-28T11:16:04.145Z,1.90
2023-03-28T11:19:02.675Z,1.85
2023-03-28T11:22:22.714Z,1.75
2023-03-28T11:25:44.929Z,1.70
2023-03-28T11:29:42.715Z,1.60
2023-03-28T11:32:55.093Z,1.73
2023-03-28T11:35:47.284Z,1.40
2023-03-28T11:38:41.661Z,1.52
2023-03-28T11:41:33.048Z,1.45
2023-03-28T11:44:47.549Z,1.50
2023-03-28T11:47:51.422Z,1.75
2023-03-28T11:53:57.961Z,1.90
2023-03-28T11:56:51.033Z,1.40
2023-03-28T12:03:29.035Z,1.83
2023-03-28T12:06:52.388Z,1.60
2023-03-28T12:10:09.458Z,1.80
2023-03-28T12:13:06.760Z,1.83
2023-03-28T12:16:05.883Z,2.15
2023-03-28T12:18:57.669Z,3.53
2023-03-28T12:22:12.945Z,3.75
2023-03-28T12:25:12.725Z,4.35
2023-03-28T12:28:39.882Z,4.13
2023-03-28T12:31:44.784Z,3.78
2023-03-28T12:34:44.382Z,2.85
2023-03-28T12:37:54.412Z,2.92
2023-03-28T12:40:49.808Z,2.58
2023-03-28T12:43:51.845Z,2.50
2023-03-28T12:47:00.889Z,2.55
2023-03-28T12:49:58.291Z,2.42
2023-03-28T12:52:46.656Z,2.20
2023-03-28T12:55:45.739Z,2.22
2023-03-28T12:58:36.492Z,2.15
2023-03-28T13:01:53.068Z,2.55
2023-03-28T13:05:37.326Z,2.17
2023-03-28T13:09:05.346Z,1.70
2023-03-28T13:12:12.944Z,2.33
2023-03-28T13:15:20.126Z,2.00
2023-03-28T13:18:17.884Z,2.20
2023-03-28T13:21:05.394Z,1.80
2023-03-28T13:23:51.067Z,1.98
2023-03-28T13:27:01.690Z,2.50
2023-03-28T13:29:50.212Z,2.20
2023-03-28T13:32:43.301Z,2.28
2023-03-28T13:35:45.894Z,2.03
2023-03-28T13:41:52.947Z,1.95
2023-03-28T13:44:42.906Z,2.08
2023-03-28T13:47:36.438Z,2.05
2023-03-28T13:50:33.902Z,1.60
2023-03-28T13:53:19.381Z,1.92
2023-03-28T13:56:29.122Z,1.60
2023-03-28T13:59:17.288Z,1.65
2023-03-28T14:02:14.585Z,1.75
2023-03-28T14:05:20.686Z,2.45
2023-03-28T14:08:26.624Z,2.30
2023-03-28T14:11:14.835Z,2.08
2023-03-28T14:14:10.534Z,1.95
2023-03-28T14:16:56.896Z,2.42
2023-03-28T14:19:54.945Z,2.30
2023-03-28T14:22:49.379Z,2.28
2023-03-28T14:25:42.915Z,1.88
2023-03-28T14:28:30.241Z,1.80
2023-03-28T14:31:29.616Z,2.20
2023-03-28T14:34:21.217Z,2.33
2023-03-28T14:37:16.628Z,2.30
2023-03-28T14:40:27.539Z,2.30
2023-03-28T14:43:13.705Z,2.13
2023-03-28T14:46:04.188Z,2.17
2023-03-28T14:48:53.585Z,2.15
2023-03-28T14:51:45.159Z,2.13
2023-03-28T14:54:38.827Z,2.80
2023-03-28T14:57:25.293Z,2.13
2023-03-28T15:00:16.061Z,2.60
2023-03-28T15:03:04.229Z,2.10
2023-03-28T15:05:51.961Z,1.70
2023-03-28T15:08:38.703Z,1.88
2023-03-28T15:11:33.615Z,1.90
2023-03-28T15:14:39.282Z,2.40
2023-03-28T15:17:26.551Z,3.05
2023-03-28T15:20:21.067Z,2.20
2023-03-28T15:23:15.503Z,2.00
2023-03-28T15:26:26.242Z,2.20
2023-03-28T15:29:17.184Z,2.00
2023-03-28T15:32:14.547Z,2.03
2023-03-28T15:35:02.085Z,1.77
2023-03-28T15:37:48.000Z,2.00
2023-03-28T15:40:39.712Z,1.98
2023-03-28T15:43:34.514Z,2.00
2023-03-28T15:46:22.023Z,1.70
2023-03-28T15:49:07.765Z,1.85
2023-03-28T15:51:57.096Z,1.70
2023-03-28T15:54:45.461Z,2.20
2023-03-28T15:57:31.699Z,2.08
2023-03-28T16:00:49.076Z,2.22
2023-03-28T16:03:34.812Z,2.10
2023-03-28T16:06:31.630Z,2.08
2023-03-28T16:09:19.905Z,2.08
2023-03-28T16:12:05.528Z,3.15
2023-03-28T16:15:04.119Z,1.70
2023-03-28T16:18:12.507Z,2.20
2023-03-28T16:21:09.786Z,2.30
2023-03-28T16:23:55.152Z,2.00
2023-03-28T16:26:40.939Z,2.20
2023-03-28T16:29:26.065Z,2.00
2023-03-28T16:32:12.911Z,2.00
2023-03-28T16:34:58.145Z,2.42
2023-03-28T16:37:43.553Z,2.30
2023-03-28T16:40:29.429Z,1.98
2023-03-28T16:43:16.466Z,2.15
2023-03-28T16:46:01.733Z,2.03
2023-03-28T16:48:47.769Z,2.10
2023-03-28T16:51:33.133Z,2.00
2023-03-28T16:54:18.296Z,1.92
2023-03-28T16:57:04.125Z,2.10
2023-03-28T16:59:49.881Z,1.88
2023-03-28T17:02:36.437Z,1.98
2023-03-28T17:05:22.402Z,2.10
2023-03-28T17:08:07.430Z,2.08
2023-03-28T17:10:53.242Z,3.03
2023-03-28T17:13:39.460Z,2.70
2023-03-28T17:16:24.781Z,2.42
2023-03-28T17:19:10.115Z,2.50
2023-03-28T17:21:56.674Z,2.60
2023-03-28T17:24:44.004Z,2.67
2023-03-28T17:27:29.866Z,3.00
2023-03-28T17:30:15.766Z,2.83
2023-03-28T17:33:01.409Z,2.70
2023-03-28T17:35:47.279Z,3.22
2023-03-28T17:38:33.046Z,3.30
2023-03-28T17:41:18.897Z,2.60
2023-03-28T17:44:06.615Z,3.42
2023-03-28T17:46:54.211Z,3.08
2023-03-28T17:49:39.597Z,3.70
2023-03-28T17:52:25.115Z,3.10
2023-03-28T17:55:10.600Z,3.17
2023-03-28T17:57:56.059Z,3.38
2023-03-28T18:00:41.702Z,3.30
2023-03-28T18:03:27.826Z,3.88
2023-03-28T18:06:26.601Z,3.10
2023-03-28T18:09:12.276Z,3.95
2023-03-28T18:11:57.732Z,3.80
2023-03-28T18:14:44.757Z,3.97
2023-03-28T18:17:30.404Z,3.80
2023-03-28T18:20:15.913Z,3.65
2023-03-28T18:23:01.595Z,3.90
2023-03-28T18:25:48.638Z,3.88
2023-03-28T18:28:36.283Z,3.72
2023-03-28T18:31:28.015Z,3.38
2023-03-28T18:34:13.708Z,3.78
2023-03-28T18:37:00.152Z,3.25
2023-03-28T18:39:46.203Z,4.53
2023-03-28T18:42:31.299Z,4.25
2023-03-28T18:45:16.753Z,4.00
2023-03-28T18:48:03.500Z,4.05
2023-03-28T18:50:49.342Z,4.57
2023-03-28T18:53:37.638Z,3.75
2023-03-28T18:56:23.695Z,3.90
2023-03-28T18:59:10.430Z,3.25
2023-03-28T19:01:56.453Z,3.97
2023-03-28T19:04:42.307Z,3.55
2023-03-28T19:07:27.902Z,3.40
2023-03-28T19:10:13.520Z,3.22
2023-03-28T19:12:58.954Z,3.72
2023-03-28T19:15:44.484Z,3.90
2023-03-28T19:18:30.366Z,3.38
2023-03-28T19:21:16.965Z,3.30
2023-03-28T19:24:02.003Z,3.55
2023-03-28T19:26:48.566Z,3.50
2023-03-28T19:29:33.958Z,3.10
2023-03-28T19:32:19.424Z,3.92
2023-03-28T19:35:05.396Z,3.28
2023-03-28T19:37:51.081Z,3.20
2023-03-28T19:40:36.577Z,3.05
2023-03-28T19:43:23.765Z,2.92
2023-03-28T19:46:13.421Z,3.03
2023-03-28T19:49:00.783Z,3.10
2023-03-28T19:51:45.983Z,3.00
2023-03-28T19:54:31.525Z,2.92
2023-03-28T19:57:17.573Z,2.50
2023-03-28T20:00:04.466Z,2.65
2023-03-28T20:02:58.438Z,2.60
2023-03-28T20:05:45.778Z,2.78
2023-03-28T20:08:31.527Z,2.80
2023-03-28T20:11:17.354Z,3.40
2023-03-28T20:14:02.866Z,2.70
2023-03-28T20:16:48.929Z,3.08
2023-03-28T20:19:34.526Z,3.22
2023-03-28T20:22:24.540Z,2.72
2023-03-28T20:25:10.469Z,2.83
2023-03-28T20:27:59.291Z,2.80
2023-03-28T20:30:46.039Z,4.05
2023-03-28T20:33:31.652Z,2.63
2023-03-28T20:36:17.406Z,2.97
2023-03-28T20:39:05.004Z,2.50
2023-03-28T20:41:50.097Z,2.33
2023-03-28T20:44:38.358Z,2.55
2023-03-28T20:47:25.291Z,2.20
2023-03-28T20:50:11.144Z,2.58
2023-03-28T20:52:57.071Z,2.50
2023-03-28T20:55:43.269Z,2.70
2023-03-28T20:58:30.393Z,2.85
2023-03-28T21:01:17.578Z,2.67
2023-03-28T21:04:04.594Z,2.35
2023-03-28T21:06:50.427Z,2.80
2023-03-28T21:09:36.585Z,2.50
2023-03-28T21:12:22.244Z,2.53
2023-03-28T21:15:08.465Z,2.40
2023-03-28T21:17:53.867Z,2.72
2023-03-28T21:20:39.242Z,2.60
2023-03-28T21:23:25.227Z,2.70
2023-03-28T21:26:13.721Z,2.60
2023-03-28T21:28:59.418Z,2.60
2023-03-28T21:31:45.103Z,2.58
2023-03-28T21:34:34.325Z,4.10
2023-03-28T21:37:19.526Z,3.00
2023-03-28T21:40:07.064Z,2.45
2023-03-28T21:42:52.648Z,2.72
2023-03-28T21:45:38.168Z,2.42
2023-03-28T21:48:23.740Z,2.80
2023-03-28T21:51:09.494Z,3.00
2023-03-28T21:53:54.986Z,2.30
2023-03-28T21:56:40.296Z,2.38
2023-03-28T21:59:26.417Z,2.25
2023-03-28T22:02:12.050Z,2.38
2023-03-28T22:04:57.575Z,1.98
2023-03-28T22:07:43.149Z,2.17
2023-03-28T22:10:29.252Z,2.10
2023-03-28T22:13:15.134Z,1.90
2023-03-28T22:16:00.728Z,1.98
2023-03-28T22:18:50.244Z,1.75
2023-03-28T22:21:37.159Z,1.70
2023-03-28T22:24:24.375Z,1.60
2023-03-28T22:27:10.155Z,1.80
2023-03-28T22:29:56.698Z,1.77
2023-03-28T22:32:42.689Z,1.45
2023-03-28T22:35:28.196Z,1.40
2023-03-28T22:38:13.831Z,1.80
2023-03-28T22:40:59.325Z,1.42
2023-03-28T22:43:45.076Z,1.88
2023-03-28T22:46:30.820Z,2.05
2023-03-28T22:49:22.073Z,1.80
2023-03-28T22:52:07.288Z,1.73
2023-03-28T22:54:52.998Z,1.60
2023-03-28T22:57:38.406Z,1.83
2023-03-28T23:00:23.775Z,1.88
2023-03-28T23:03:10.262Z,1.77
2023-03-28T23:05:55.499Z,1.98
2023-03-28T23:08:40.941Z,1.80
2023-03-28T23:11:26.569Z,1.60
2023-03-28T23:14:12.542Z,1.80
2023-03-28T23:16:58.179Z,1.88
2023-03-28T23:19:43.549Z,1.95
2023-03-28T23:22:28.651Z,2.00
2023-03-28T23:25:16.371Z,2.05
2023-03-28T23:28:01.628Z,1.90
2023-03-28T23:30:47.155Z,2.10
2023-03-28T23:33:32.560Z,1.75
2023-03-28T23:36:20.955Z,2.60
2023-03-28T23:39:11.091Z,1.75
